sensor_id;sensor_type;location;lat;lon;timestamp;P1;durP1;ratioP1;P2;durP2;ratioP2
41311;SDS011;27061;41.648;24.568;2022-10-01T00:01:14;6.57;;;3.17;;
41311;SDS011;27061;41.648;24.568;2022-10-01T00:03:43;4.20;;;2.97;;
41311;SDS011;27061;41.648;24.568;2022-10-01T00:08:40;14.48;;;3.50;;
41311;SDS011;27061;41.648;24.568;2022-10-01T00:11:12;7.53;;;3.40;;
41311;SDS011;27061;41.648;24.568;2022-10-01T00:13:47;19.25;;;3.65;;
41311;SDS011;27061;41.648;24.568;2022-10-01T00:16:17;11.93;;;4.07;;
41311;SDS011;27061;41.648;24.568;2022-10-01T00:18:46;6.97;;;3.05;;
41311;SDS011;27061;41.648;24.568;2022-10-01T00:21:15;6.40;;;3.65;;
41311;SDS011;27061;41.648;24.568;2022-10-01T00:23:44;6.35;;;3.38;;
41311;SDS011;27061;41.648;24.568;2022-10-01T00:28:44;12.30;;;3.75;;
41311;SDS011;27061;41.648;24.568;2022-10-01T00:31:12;10.43;;;4.10;;
41311;SDS011;27061;41.648;24.568;2022-10-01T00:33:41;3.95;;;3.38;;
41311;SDS011;27061;41.648;24.568;2022-10-01T00:36:09;3.65;;;3.13;;
41311;SDS011;27061;41.648;24.568;2022-10-01T00:38:37;4.68;;;3.20;;
41311;SDS011;27061;41.648;24.568;2022-10-01T00:41:06;13.13;;;4.55;;
41311;SDS011;27061;41.648;24.568;2022-10-01T00:43:35;4.72;;;3.80;;
41311;SDS011;27061;41.648;24.568;2022-10-01T00:46:11;20.77;;;3.72;;
41311;SDS011;27061;41.648;24.568;2022-10-01T00:48:55;9.02;;;3.55;;
41311;SDS011;27061;41.648;24.568;2022-10-01T00:51:25;5.20;;;4.22;;
41311;SDS011;27061;41.648;24.568;2022-10-01T00:53:56;21.95;;;4.30;;
41311;SDS011;27061;41.648;24.568;2022-10-01T00:56:28;5.50;;;3.83;;
41311;SDS011;27061;41.648;24.568;2022-10-01T00:58:56;8.63;;;3.80;;
41311;SDS011;27061;41.648;24.568;2022-10-01T01:01:24;4.85;;;3.75;;
41311;SDS011;27061;41.648;24.568;2022-10-01T01:03:52;4.20;;;3.40;;
41311;SDS011;27061;41.648;24.568;2022-10-01T01:06:20;3.97;;;3.55;;
41311;SDS011;27061;41.648;24.568;2022-10-01T01:08:48;5.70;;;3.85;;
41311;SDS011;27061;41.648;24.568;2022-10-01T01:11:32;11.02;;;3.63;;
41311;SDS011;27061;41.648;24.568;2022-10-01T01:14:09;3.92;;;3.63;;
41311;SDS011;27061;41.648;24.568;2022-10-01T01:17:04;5.60;;;3.83;;
41311;SDS011;27061;41.648;24.568;2022-10-01T01:22:20;11.32;;;4.20;;
41311;SDS011;27061;41.648;24.568;2022-10-01T01:24:54;4.70;;;3.83;;
41311;SDS011;27061;41.648;24.568;2022-10-01T01:27:57;6.57;;;3.78;;
41311;SDS011;27061;41.648;24.568;2022-10-01T01:30:32;5.35;;;3.65;;
41311;SDS011;27061;41.648;24.568;2022-10-01T01:33:07;11.23;;;4.10;;
41311;SDS011;27061;41.648;24.568;2022-10-01T01:35:39;5.95;;;4.03;;
41311;SDS011;27061;41.648;24.568;2022-10-01T01:38:16;5.57;;;4.00;;
41311;SDS011;27061;41.648;24.568;2022-10-01T01:40:47;7.32;;;4.88;;
41311;SDS011;27061;41.648;24.568;2022-10-01T01:43:18;6.85;;;3.60;;
41311;SDS011;27061;41.648;24.568;2022-10-01T01:45:50;8.45;;;3.97;;
41311;SDS011;27061;41.648;24.568;2022-10-01T01:48:23;3.95;;;3.65;;
41311;SDS011;27061;41.648;24.568;2022-10-01T01:51:01;10.93;;;3.90;;
41311;SDS011;27061;41.648;24.568;2022-10-01T01:53:36;4.53;;;3.72;;
41311;SDS011;27061;41.648;24.568;2022-10-01T01:56:04;7.30;;;3.45;;
41311;SDS011;27061;41.648;24.568;2022-10-01T01:58:33;8.35;;;3.95;;
41311;SDS011;27061;41.648;24.568;2022-10-01T02:01:01;4.53;;;3.63;;
41311;SDS011;27061;41.648;24.568;2022-10-01T02:03:29;6.03;;;3.88;;
41311;SDS011;27061;41.648;24.568;2022-10-01T02:09:04;5.68;;;3.63;;
41311;SDS011;27061;41.648;24.568;2022-10-01T02:12:41;4.03;;;3.72;;
41311;SDS011;27061;41.648;24.568;2022-10-01T02:14:51;6.78;;;4.35;;
41311;SDS011;27061;41.648;24.568;2022-10-01T02:17:27;4.25;;;3.70;;
41311;SDS011;27061;41.648;24.568;2022-10-01T02:20:01;4.68;;;4.03;;
41311;SDS011;27061;41.648;24.568;2022-10-01T02:22:38;3.50;;;3.30;;
41311;SDS011;27061;41.648;24.568;2022-10-01T02:25:12;4.50;;;4.10;;
41311;SDS011;27061;41.648;24.568;2022-10-01T02:27:53;8.00;;;4.90;;
41311;SDS011;27061;41.648;24.568;2022-10-01T02:30:29;3.80;;;3.50;;
41311;SDS011;27061;41.648;24.568;2022-10-01T02:33:01;6.25;;;4.05;;
41311;SDS011;27061;41.648;24.568;2022-10-01T02:35:31;4.57;;;3.63;;
41311;SDS011;27061;41.648;24.568;2022-10-01T02:38:01;11.43;;;6.97;;
41311;SDS011;27061;41.648;24.568;2022-10-01T02:40:32;5.68;;;4.90;;
41311;SDS011;27061;41.648;24.568;2022-10-01T02:43:06;15.57;;;4.88;;
41311;SDS011;27061;41.648;24.568;2022-10-01T02:45:40;9.27;;;6.35;;
41311;SDS011;27061;41.648;24.568;2022-10-01T02:48:13;8.43;;;5.18;;
41311;SDS011;27061;41.648;24.568;2022-10-01T02:50:51;12.02;;;4.28;;
41311;SDS011;27061;41.648;24.568;2022-10-01T02:53:39;10.65;;;5.68;;
41311;SDS011;27061;41.648;24.568;2022-10-01T02:56:09;8.65;;;4.50;;
41311;SDS011;27061;41.648;24.568;2022-10-01T02:58:40;4.97;;;4.45;;
41311;SDS011;27061;41.648;24.568;2022-10-01T03:01:07;8.15;;;5.25;;
41311;SDS011;27061;41.648;24.568;2022-10-01T03:03:35;12.35;;;8.65;;
41311;SDS011;27061;41.648;24.568;2022-10-01T03:06:02;16.25;;;8.20;;
41311;SDS011;27061;41.648;24.568;2022-10-01T03:08:29;12.63;;;5.78;;
41311;SDS011;27061;41.648;24.568;2022-10-01T03:10:57;5.28;;;4.43;;
41311;SDS011;27061;41.648;24.568;2022-10-01T03:13:24;11.30;;;4.65;;
41311;SDS011;27061;41.648;24.568;2022-10-01T03:15:51;8.88;;;4.13;;
41311;SDS011;27061;41.648;24.568;2022-10-01T03:18:18;3.92;;;3.60;;
41311;SDS011;27061;41.648;24.568;2022-10-01T03:20:46;7.93;;;3.88;;
41311;SDS011;27061;41.648;24.568;2022-10-01T03:23:13;12.35;;;3.85;;
41311;SDS011;27061;41.648;24.568;2022-10-01T03:25:40;3.50;;;3.25;;
41311;SDS011;27061;41.648;24.568;2022-10-01T03:28:07;3.78;;;3.42;;
41311;SDS011;27061;41.648;24.568;2022-10-01T03:30:34;5.80;;;3.83;;
41311;SDS011;27061;41.648;24.568;2022-10-01T03:33:01;15.75;;;8.25;;
41311;SDS011;27061;41.648;24.568;2022-10-01T03:35:28;34.60;;;13.82;;
41311;SDS011;27061;41.648;24.568;2022-10-01T03:37:55;30.10;;;15.20;;
41311;SDS011;27061;41.648;24.568;2022-10-01T03:40:22;13.25;;;6.45;;
41311;SDS011;27061;41.648;24.568;2022-10-01T03:42:50;8.02;;;3.83;;
41311;SDS011;27061;41.648;24.568;2022-10-01T03:45:17;11.82;;;3.67;;
41311;SDS011;27061;41.648;24.568;2022-10-01T03:47:50;3.92;;;3.30;;
41311;SDS011;27061;41.648;24.568;2022-10-01T03:50:18;6.03;;;3.55;;
41311;SDS011;27061;41.648;24.568;2022-10-01T03:52:47;14.65;;;4.63;;
41311;SDS011;27061;41.648;24.568;2022-10-01T03:55:16;6.78;;;3.33;;
41311;SDS011;27061;41.648;24.568;2022-10-01T03:57:43;9.40;;;2.58;;
41311;SDS011;27061;41.648;24.568;2022-10-01T04:00:10;10.02;;;2.30;;
41311;SDS011;27061;41.648;24.568;2022-10-01T04:02:39;4.05;;;1.90;;
41311;SDS011;27061;41.648;24.568;2022-10-01T04:05:06;3.90;;;2.03;;
41311;SDS011;27061;41.648;24.568;2022-10-01T04:07:34;7.55;;;2.47;;
41311;SDS011;27061;41.648;24.568;2022-10-01T04:10:01;3.60;;;2.35;;
41311;SDS011;27061;41.648;24.568;2022-10-01T04:12:28;6.53;;;2.70;;
41311;SDS011;27061;41.648;24.568;2022-10-01T04:14:55;2.55;;;2.00;;
41311;SDS011;27061;41.648;24.568;2022-10-01T04:17:22;14.10;;;3.60;;
41311;SDS011;27061;41.648;24.568;2022-10-01T04:19:49;12.52;;;2.88;;
41311;SDS011;27061;41.648;24.568;2022-10-01T04:22:16;6.57;;;3.30;;
41311;SDS011;27061;41.648;24.568;2022-10-01T04:24:43;6.80;;;3.20;;
41311;SDS011;27061;41.648;24.568;2022-10-01T04:27:10;24.70;;;4.03;;
41311;SDS011;27061;41.648;24.568;2022-10-01T04:29:37;5.28;;;3.13;;
41311;SDS011;27061;41.648;24.568;2022-10-01T04:32:05;8.85;;;3.22;;
41311;SDS011;27061;41.648;24.568;2022-10-01T04:34:33;9.32;;;4.72;;
41311;SDS011;27061;41.648;24.568;2022-10-01T04:37:18;10.95;;;3.97;;
41311;SDS011;27061;41.648;24.568;2022-10-01T04:39:46;14.20;;;5.90;;
41311;SDS011;27061;41.648;24.568;2022-10-01T04:42:14;11.05;;;3.17;;
41311;SDS011;27061;41.648;24.568;2022-10-01T04:44:40;9.95;;;3.13;;
41311;SDS011;27061;41.648;24.568;2022-10-01T04:47:07;28.00;;;8.98;;
41311;SDS011;27061;41.648;24.568;2022-10-01T04:49:34;24.48;;;4.85;;
41311;SDS011;27061;41.648;24.568;2022-10-01T04:52:02;11.00;;;4.05;;
41311;SDS011;27061;41.648;24.568;2022-10-01T04:54:30;18.92;;;4.93;;
41311;SDS011;27061;41.648;24.568;2022-10-01T04:56:57;17.60;;;4.20;;
41311;SDS011;27061;41.648;24.568;2022-10-01T04:59:24;5.20;;;1.98;;
41311;SDS011;27061;41.648;24.568;2022-10-01T05:01:51;3.03;;;1.75;;
41311;SDS011;27061;41.648;24.568;2022-10-01T05:04:18;5.38;;;1.83;;
41311;SDS011;27061;41.648;24.568;2022-10-01T05:06:45;2.40;;;1.52;;
41311;SDS011;27061;41.648;24.568;2022-10-01T05:09:12;4.65;;;1.58;;
41311;SDS011;27061;41.648;24.568;2022-10-01T05:11:39;2.42;;;1.73;;
41311;SDS011;27061;41.648;24.568;2022-10-01T05:14:06;3.95;;;2.08;;
41311;SDS011;27061;41.648;24.568;2022-10-01T05:16:34;15.13;;;2.20;;
41311;SDS011;27061;41.648;24.568;2022-10-01T05:19:01;6.68;;;2.45;;
41311;SDS011;27061;41.648;24.568;2022-10-01T05:21:28;5.07;;;1.95;;
41311;SDS011;27061;41.648;24.568;2022-10-01T05:23:55;5.63;;;2.58;;
41311;SDS011;27061;41.648;24.568;2022-10-01T05:26:22;2.65;;;1.88;;
41311;SDS011;27061;41.648;24.568;2022-10-01T05:28:49;12.68;;;2.15;;
41311;SDS011;27061;41.648;24.568;2022-10-01T05:31:16;8.68;;;2.80;;
41311;SDS011;27061;41.648;24.568;2022-10-01T05:33:44;56.63;;;5.07;;
41311;SDS011;27061;41.648;24.568;2022-10-01T05:36:11;2.70;;;2.03;;
41311;SDS011;27061;41.648;24.568;2022-10-01T05:38:38;11.85;;;2.60;;
41311;SDS011;27061;41.648;24.568;2022-10-01T05:41:05;5.40;;;3.63;;
41311;SDS011;27061;41.648;24.568;2022-10-01T05:43:32;10.45;;;3.15;;
41311;SDS011;27061;41.648;24.568;2022-10-01T05:46:00;3.65;;;1.83;;
41311;SDS011;27061;41.648;24.568;2022-10-01T05:48:28;7.80;;;2.30;;
41311;SDS011;27061;41.648;24.568;2022-10-01T05:50:59;5.53;;;1.80;;
41311;SDS011;27061;41.648;24.568;2022-10-01T05:53:28;2.92;;;1.75;;
41311;SDS011;27061;41.648;24.568;2022-10-01T05:55:57;12.35;;;2.58;;
41311;SDS011;27061;41.648;24.568;2022-10-01T05:58:27;4.63;;;2.22;;
41311;SDS011;27061;41.648;24.568;2022-10-01T06:00:55;12.95;;;2.10;;
41311;SDS011;27061;41.648;24.568;2022-10-01T06:03:22;1.70;;;1.60;;
41311;SDS011;27061;41.648;24.568;2022-10-01T06:05:49;2.85;;;1.60;;
41311;SDS011;27061;41.648;24.568;2022-10-01T06:08:17;9.50;;;1.70;;
41311;SDS011;27061;41.648;24.568;2022-10-01T06:10:45;2.28;;;1.80;;
41311;SDS011;27061;41.648;24.568;2022-10-01T06:13:12;3.60;;;1.67;;
41311;SDS011;27061;41.648;24.568;2022-10-01T06:15:43;10.55;;;3.15;;
41311;SDS011;27061;41.648;24.568;2022-10-01T06:18:12;10.13;;;1.90;;
41311;SDS011;27061;41.648;24.568;2022-10-01T06:20:39;3.97;;;1.70;;
41311;SDS011;27061;41.648;24.568;2022-10-01T06:23:08;4.03;;;1.77;;
41311;SDS011;27061;41.648;24.568;2022-10-01T06:25:38;8.55;;;1.98;;
41311;SDS011;27061;41.648;24.568;2022-10-01T06:28:07;4.32;;;1.85;;
41311;SDS011;27061;41.648;24.568;2022-10-01T06:30:37;3.75;;;1.30;;
41311;SDS011;27061;41.648;24.568;2022-10-01T06:33:06;1.83;;;1.73;;
41311;SDS011;27061;41.648;24.568;2022-10-01T06:35:34;1.63;;;1.52;;
41311;SDS011;27061;41.648;24.568;2022-10-01T06:38:05;5.28;;;1.85;;
41311;SDS011;27061;41.648;24.568;2022-10-01T06:40:32;3.40;;;2.33;;
41311;SDS011;27061;41.648;24.568;2022-10-01T06:42:59;9.60;;;1.60;;
41311;SDS011;27061;41.648;24.568;2022-10-01T06:45:26;7.28;;;2.30;;
41311;SDS011;27061;41.648;24.568;2022-10-01T06:47:55;6.25;;;1.80;;
41311;SDS011;27061;41.648;24.568;2022-10-01T06:50:24;7.40;;;1.35;;
41311;SDS011;27061;41.648;24.568;2022-10-01T06:52:51;5.43;;;1.42;;
41311;SDS011;27061;41.648;24.568;2022-10-01T06:55:19;3.83;;;1.55;;
41311;SDS011;27061;41.648;24.568;2022-10-01T06:57:52;8.80;;;1.88;;
41311;SDS011;27061;41.648;24.568;2022-10-01T07:00:21;2.38;;;1.05;;
41311;SDS011;27061;41.648;24.568;2022-10-01T07:02:48;6.47;;;1.75;;
41311;SDS011;27061;41.648;24.568;2022-10-01T07:05:16;9.88;;;1.95;;
41311;SDS011;27061;41.648;24.568;2022-10-01T07:07:43;3.45;;;1.50;;
41311;SDS011;27061;41.648;24.568;2022-10-01T07:10:11;4.03;;;1.85;;
41311;SDS011;27061;41.648;24.568;2022-10-01T07:12:38;3.92;;;1.75;;
41311;SDS011;27061;41.648;24.568;2022-10-01T07:15:06;7.45;;;1.42;;
41311;SDS011;27061;41.648;24.568;2022-10-01T07:17:40;6.65;;;3.05;;
41311;SDS011;27061;41.648;24.568;2022-10-01T07:20:09;6.97;;;1.13;;
41311;SDS011;27061;41.648;24.568;2022-10-01T07:22:36;7.00;;;1.92;;
41311;SDS011;27061;41.648;24.568;2022-10-01T07:25:04;12.00;;;2.03;;
41311;SDS011;27061;41.648;24.568;2022-10-01T07:27:31;3.97;;;1.50;;
41311;SDS011;27061;41.648;24.568;2022-10-01T07:29:59;7.53;;;1.73;;
41311;SDS011;27061;41.648;24.568;2022-10-01T07:32:26;11.57;;;1.00;;
41311;SDS011;27061;41.648;24.568;2022-10-01T07:34:53;2.15;;;0.88;;
41311;SDS011;27061;41.648;24.568;2022-10-01T07:37:20;6.55;;;1.30;;
41311;SDS011;27061;41.648;24.568;2022-10-01T07:39:47;8.15;;;1.58;;
41311;SDS011;27061;41.648;24.568;2022-10-01T07:42:14;7.32;;;1.40;;
41311;SDS011;27061;41.648;24.568;2022-10-01T07:44:41;3.03;;;1.15;;
41311;SDS011;27061;41.648;24.568;2022-10-01T07:47:08;29.02;;;2.13;;
41311;SDS011;27061;41.648;24.568;2022-10-01T07:49:36;3.92;;;1.50;;
41311;SDS011;27061;41.648;24.568;2022-10-01T07:52:02;1.42;;;1.02;;
41311;SDS011;27061;41.648;24.568;2022-10-01T07:54:38;6.43;;;1.92;;
41311;SDS011;27061;41.648;24.568;2022-10-01T07:57:05;5.30;;;1.20;;
41311;SDS011;27061;41.648;24.568;2022-10-01T07:59:32;6.43;;;1.67;;
41311;SDS011;27061;41.648;24.568;2022-10-01T08:01:59;3.20;;;1.65;;
41311;SDS011;27061;41.648;24.568;2022-10-01T08:04:26;5.55;;;1.33;;
41311;SDS011;27061;41.648;24.568;2022-10-01T08:07:12;3.60;;;1.33;;
41311;SDS011;27061;41.648;24.568;2022-10-01T08:09:40;6.82;;;1.02;;
41311;SDS011;27061;41.648;24.568;2022-10-01T08:12:07;6.85;;;1.25;;
41311;SDS011;27061;41.648;24.568;2022-10-01T08:14:34;3.45;;;1.20;;
41311;SDS011;27061;41.648;24.568;2022-10-01T08:17:01;5.63;;;1.38;;
41311;SDS011;27061;41.648;24.568;2022-10-01T08:19:28;4.20;;;1.08;;
41311;SDS011;27061;41.648;24.568;2022-10-01T08:21:55;5.60;;;1.13;;
41311;SDS011;27061;41.648;24.568;2022-10-01T08:24:22;3.33;;;1.50;;
41311;SDS011;27061;41.648;24.568;2022-10-01T08:26:53;4.50;;;1.27;;
41311;SDS011;27061;41.648;24.568;2022-10-01T08:29:23;6.30;;;1.20;;
41311;SDS011;27061;41.648;24.568;2022-10-01T08:31:50;3.70;;;1.05;;
41311;SDS011;27061;41.648;24.568;2022-10-01T08:34:17;2.70;;;1.10;;
41311;SDS011;27061;41.648;24.568;2022-10-01T08:36:44;5.82;;;2.00;;
41311;SDS011;27061;41.648;24.568;2022-10-01T08:39:16;4.85;;;1.70;;
41311;SDS011;27061;41.648;24.568;2022-10-01T08:44:48;9.70;;;2.17;;
41311;SDS011;27061;41.648;24.568;2022-10-01T08:47:24;6.18;;;1.42;;
41311;SDS011;27061;41.648;24.568;2022-10-01T08:52:53;4.13;;;1.10;;
41311;SDS011;27061;41.648;24.568;2022-10-01T08:55:26;10.73;;;1.60;;
41311;SDS011;27061;41.648;24.568;2022-10-01T08:58:05;7.60;;;1.60;;
41311;SDS011;27061;41.648;24.568;2022-10-01T09:00:38;1.85;;;0.93;;
41311;SDS011;27061;41.648;24.568;2022-10-01T09:03:09;2.05;;;1.17;;
41311;SDS011;27061;41.648;24.568;2022-10-01T09:05:51;5.68;;;2.05;;
41311;SDS011;27061;41.648;24.568;2022-10-01T09:11:43;6.78;;;1.48;;
41311;SDS011;27061;41.648;24.568;2022-10-01T09:22:40;3.53;;;1.08;;
41311;SDS011;27061;41.648;24.568;2022-10-01T09:25:23;4.38;;;1.20;;
41311;SDS011;27061;41.648;24.568;2022-10-01T09:28:06;7.60;;;2.03;;
41311;SDS011;27061;41.648;24.568;2022-10-01T09:34:07;4.03;;;1.48;;
41311;SDS011;27061;41.648;24.568;2022-10-01T09:41:57;3.55;;;1.60;;
41311;SDS011;27061;41.648;24.568;2022-10-01T09:44:26;3.35;;;1.23;;
41311;SDS011;27061;41.648;24.568;2022-10-01T09:46:56;3.50;;;1.55;;
41311;SDS011;27061;41.648;24.568;2022-10-01T09:51:57;5.45;;;2.08;;
41311;SDS011;27061;41.648;24.568;2022-10-01T09:57:54;4.50;;;1.30;;
41311;SDS011;27061;41.648;24.568;2022-10-01T10:00:27;7.47;;;2.05;;
41311;SDS011;27061;41.648;24.568;2022-10-01T10:02:54;14.57;;;1.88;;
41311;SDS011;27061;41.648;24.568;2022-10-01T10:05:23;6.47;;;1.95;;
41311;SDS011;27061;41.648;24.568;2022-10-01T10:07:56;5.95;;;1.60;;
41311;SDS011;27061;41.648;24.568;2022-10-01T10:10:29;5.78;;;1.45;;
41311;SDS011;27061;41.648;24.568;2022-10-01T10:13:03;6.53;;;1.80;;
41311;SDS011;27061;41.648;24.568;2022-10-01T10:15:49;4.82;;;1.80;;
41311;SDS011;27061;41.648;24.568;2022-10-01T10:18:29;7.32;;;1.50;;
41311;SDS011;27061;41.648;24.568;2022-10-01T10:21:03;5.22;;;1.60;;
41311;SDS011;27061;41.648;24.568;2022-10-01T10:23:33;7.28;;;2.75;;
41311;SDS011;27061;41.648;24.568;2022-10-01T10:26:01;14.48;;;1.73;;
41311;SDS011;27061;41.648;24.568;2022-10-01T10:28:39;3.38;;;1.35;;
41311;SDS011;27061;41.648;24.568;2022-10-01T10:31:13;4.32;;;1.35;;
41311;SDS011;27061;41.648;24.568;2022-10-01T10:36:44;4.07;;;1.42;;
41311;SDS011;27061;41.648;24.568;2022-10-01T10:39:22;5.72;;;2.25;;
41311;SDS011;27061;41.648;24.568;2022-10-01T10:41:55;3.90;;;1.52;;
41311;SDS011;27061;41.648;24.568;2022-10-01T10:44:25;4.55;;;1.17;;
41311;SDS011;27061;41.648;24.568;2022-10-01T10:46:58;5.15;;;1.20;;
41311;SDS011;27061;41.648;24.568;2022-10-01T10:49:28;4.22;;;1.17;;
41311;SDS011;27061;41.648;24.568;2022-10-01T10:51:59;3.50;;;0.68;;
41311;SDS011;27061;41.648;24.568;2022-10-01T10:54:29;10.30;;;1.17;;
41311;SDS011;27061;41.648;24.568;2022-10-01T10:57:18;4.03;;;1.08;;
41311;SDS011;27061;41.648;24.568;2022-10-01T10:59:55;7.47;;;1.00;;
41311;SDS011;27061;41.648;24.568;2022-10-01T11:02:22;3.43;;;0.80;;
41311;SDS011;27061;41.648;24.568;2022-10-01T11:05:14;6.85;;;0.57;;
41311;SDS011;27061;41.648;24.568;2022-10-01T11:07:45;0.98;;;0.70;;
41311;SDS011;27061;41.648;24.568;2022-10-01T11:10:18;4.13;;;0.55;;
41311;SDS011;27061;41.648;24.568;2022-10-01T11:13:19;4.97;;;1.00;;
41311;SDS011;27061;41.648;24.568;2022-10-01T11:24:21;3.38;;;1.15;;
41311;SDS011;27061;41.648;24.568;2022-10-01T11:32:21;7.10;;;0.90;;
41311;SDS011;27061;41.648;24.568;2022-10-01T11:34:56;6.85;;;0.98;;
41311;SDS011;27061;41.648;24.568;2022-10-01T11:37:41;2.20;;;0.70;;
41311;SDS011;27061;41.648;24.568;2022-10-01T11:40:34;8.40;;;2.70;;
41311;SDS011;27061;41.648;24.568;2022-10-01T11:43:17;3.95;;;0.80;;
41311;SDS011;27061;41.648;24.568;2022-10-01T11:46:06;2.65;;;0.77;;
41311;SDS011;27061;41.648;24.568;2022-10-01T11:48:46;1.20;;;0.57;;
41311;SDS011;27061;41.648;24.568;2022-10-01T11:51:21;2.67;;;0.50;;
41311;SDS011;27061;41.648;24.568;2022-10-01T11:53:54;4.70;;;0.47;;
41311;SDS011;27061;41.648;24.568;2022-10-01T11:56:27;2.97;;;0.57;;
41311;SDS011;27061;41.648;24.568;2022-10-01T12:01:48;2.70;;;0.50;;
41311;SDS011;27061;41.648;24.568;2022-10-01T12:04:30;3.75;;;0.95;;
41311;SDS011;27061;41.648;24.568;2022-10-01T12:12:34;2.42;;;0.75;;
41311;SDS011;27061;41.648;24.568;2022-10-01T12:15:11;1.52;;;0.50;;
41311;SDS011;27061;41.648;24.568;2022-10-01T12:18:10;2.78;;;0.65;;
41311;SDS011;27061;41.648;24.568;2022-10-01T12:21:07;1.45;;;0.55;;
41311;SDS011;27061;41.648;24.568;2022-10-01T12:23:43;0.65;;;0.40;;
41311;SDS011;27061;41.648;24.568;2022-10-01T12:26:20;2.42;;;0.40;;
41311;SDS011;27061;41.648;24.568;2022-10-01T12:28:54;1.67;;;0.63;;
41311;SDS011;27061;41.648;24.568;2022-10-01T12:45:43;8.18;;;0.52;;
41311;SDS011;27061;41.648;24.568;2022-10-01T12:53:55;2.20;;;0.40;;
41311;SDS011;27061;41.648;24.568;2022-10-01T12:56:47;2.17;;;0.43;;
41311;SDS011;27061;41.648;24.568;2022-10-01T12:59:38;3.17;;;0.60;;
41311;SDS011;27061;41.648;24.568;2022-10-01T13:07:51;3.22;;;0.80;;
41311;SDS011;27061;41.648;24.568;2022-10-01T13:13:20;5.18;;;1.15;;
41311;SDS011;27061;41.648;24.568;2022-10-01T13:15:57;2.35;;;0.80;;
41311;SDS011;27061;41.648;24.568;2022-10-01T13:24:22;4.15;;;0.90;;
41311;SDS011;27061;41.648;24.568;2022-10-01T13:29:32;7.03;;;1.40;;
41311;SDS011;27061;41.648;24.568;2022-10-01T13:32:33;7.10;;;1.27;;
41311;SDS011;27061;41.648;24.568;2022-10-01T13:37:51;9.50;;;1.30;;
41311;SDS011;27061;41.648;24.568;2022-10-01T13:40:22;5.68;;;1.17;;
41311;SDS011;27061;41.648;24.568;2022-10-01T13:42:51;1.92;;;0.70;;
41311;SDS011;27061;41.648;24.568;2022-10-01T13:50:40;5.80;;;0.82;;
41311;SDS011;27061;41.648;24.568;2022-10-01T13:53:24;5.57;;;1.05;;
41311;SDS011;27061;41.648;24.568;2022-10-01T13:55:52;13.05;;;5.10;;
41311;SDS011;27061;41.648;24.568;2022-10-01T13:58:30;4.82;;;1.15;;
41311;SDS011;27061;41.648;24.568;2022-10-01T14:03:51;6.45;;;1.17;;
41311;SDS011;27061;41.648;24.568;2022-10-01T14:08:59;6.00;;;1.75;;
41311;SDS011;27061;41.648;24.568;2022-10-01T14:11:38;13.15;;;1.27;;
41311;SDS011;27061;41.648;24.568;2022-10-01T14:17:23;9.02;;;1.50;;
41311;SDS011;27061;41.648;24.568;2022-10-01T14:19:53;12.63;;;1.52;;
41311;SDS011;27061;41.648;24.568;2022-10-01T14:30:50;10.85;;;1.75;;
41311;SDS011;27061;41.648;24.568;2022-10-01T14:36:32;5.88;;;1.85;;
41311;SDS011;27061;41.648;24.568;2022-10-01T14:39:01;13.45;;;5.13;;
41311;SDS011;27061;41.648;24.568;2022-10-01T14:41:39;12.93;;;2.75;;
41311;SDS011;27061;41.648;24.568;2022-10-01T14:46:50;15.93;;;2.33;;
41311;SDS011;27061;41.648;24.568;2022-10-01T14:49:28;11.23;;;2.83;;
41311;SDS011;27061;41.648;24.568;2022-10-01T14:52:00;7.07;;;2.30;;
41311;SDS011;27061;41.648;24.568;2022-10-01T14:54:32;7.27;;;1.93;;
41311;SDS011;27061;41.648;24.568;2022-10-01T14:57:17;16.05;;;3.53;;
41311;SDS011;27061;41.648;24.568;2022-10-01T15:00:02;7.35;;;2.47;;
41311;SDS011;27061;41.648;24.568;2022-10-01T15:03:00;7.43;;;1.80;;
41311;SDS011;27061;41.648;24.568;2022-10-01T15:05:41;14.63;;;3.30;;
41311;SDS011;27061;41.648;24.568;2022-10-01T15:10:51;11.60;;;2.40;;
41311;SDS011;27061;41.648;24.568;2022-10-01T15:13:24;14.35;;;2.38;;
41311;SDS011;27061;41.648;24.568;2022-10-01T15:15:54;13.00;;;1.90;;
41311;SDS011;27061;41.648;24.568;2022-10-01T15:18:21;10.23;;;1.92;;
41311;SDS011;27061;41.648;24.568;2022-10-01T15:21:00;9.70;;;2.35;;
41311;SDS011;27061;41.648;24.568;2022-10-01T15:23:32;6.72;;;1.75;;
41311;SDS011;27061;41.648;24.568;2022-10-01T15:26:02;12.88;;;1.98;;
41311;SDS011;27061;41.648;24.568;2022-10-01T15:28:39;5.30;;;2.10;;
41311;SDS011;27061;41.648;24.568;2022-10-01T15:31:06;11.60;;;1.80;;
41311;SDS011;27061;41.648;24.568;2022-10-01T15:33:37;10.00;;;2.22;;
41311;SDS011;27061;41.648;24.568;2022-10-01T15:36:12;15.50;;;1.70;;
41311;SDS011;27061;41.648;24.568;2022-10-01T15:38:43;6.27;;;1.90;;
41311;SDS011;27061;41.648;24.568;2022-10-01T15:41:20;8.20;;;1.52;;
41311;SDS011;27061;41.648;24.568;2022-10-01T15:43:58;13.48;;;2.38;;
41311;SDS011;27061;41.648;24.568;2022-10-01T15:46:29;8.57;;;2.00;;
41311;SDS011;27061;41.648;24.568;2022-10-01T15:49:10;10.82;;;1.85;;
41311;SDS011;27061;41.648;24.568;2022-10-01T15:51:53;8.38;;;1.85;;
41311;SDS011;27061;41.648;24.568;2022-10-01T15:54:43;14.52;;;2.05;;
41311;SDS011;27061;41.648;24.568;2022-10-01T15:57:17;12.98;;;1.70;;
41311;SDS011;27061;41.648;24.568;2022-10-01T15:59:48;13.77;;;1.83;;
41311;SDS011;27061;41.648;24.568;2022-10-01T16:02:18;7.03;;;1.77;;
41311;SDS011;27061;41.648;24.568;2022-10-01T16:05:05;6.10;;;1.63;;
41311;SDS011;27061;41.648;24.568;2022-10-01T16:07:34;8.52;;;2.47;;
41311;SDS011;27061;41.648;24.568;2022-10-01T16:10:11;7.22;;;2.00;;
41311;SDS011;27061;41.648;24.568;2022-10-01T16:12:40;16.63;;;4.32;;
41311;SDS011;27061;41.648;24.568;2022-10-01T16:15:22;8.38;;;2.33;;
41311;SDS011;27061;41.648;24.568;2022-10-01T16:17:59;10.20;;;2.40;;
41311;SDS011;27061;41.648;24.568;2022-10-01T16:20:37;11.05;;;3.70;;
41311;SDS011;27061;41.648;24.568;2022-10-01T16:23:33;9.23;;;2.25;;
41311;SDS011;27061;41.648;24.568;2022-10-01T16:28:53;11.73;;;2.03;;
41311;SDS011;27061;41.648;24.568;2022-10-01T16:31:45;10.98;;;2.30;;
41311;SDS011;27061;41.648;24.568;2022-10-01T16:34:13;11.60;;;1.75;;
41311;SDS011;27061;41.648;24.568;2022-10-01T16:36:42;8.80;;;2.72;;
41311;SDS011;27061;41.648;24.568;2022-10-01T16:39:12;6.93;;;2.33;;
41311;SDS011;27061;41.648;24.568;2022-10-01T16:41:41;13.40;;;4.85;;
41311;SDS011;27061;41.648;24.568;2022-10-01T16:44:32;13.20;;;1.95;;
41311;SDS011;27061;41.648;24.568;2022-10-01T16:47:02;11.48;;;2.33;;
41311;SDS011;27061;41.648;24.568;2022-10-01T16:49:29;19.73;;;3.53;;
41311;SDS011;27061;41.648;24.568;2022-10-01T16:51:57;5.40;;;2.35;;
41311;SDS011;27061;41.648;24.568;2022-10-01T16:54:25;9.32;;;2.25;;
41311;SDS011;27061;41.648;24.568;2022-10-01T16:56:52;9.82;;;2.30;;
41311;SDS011;27061;41.648;24.568;2022-10-01T16:59:21;10.35;;;2.30;;
41311;SDS011;27061;41.648;24.568;2022-10-01T17:01:50;4.97;;;3.55;;
41311;SDS011;27061;41.648;24.568;2022-10-01T17:04:21;6.10;;;2.40;;
41311;SDS011;27061;41.648;24.568;2022-10-01T17:06:48;14.77;;;2.63;;
41311;SDS011;27061;41.648;24.568;2022-10-01T17:09:16;6.40;;;2.60;;
41311;SDS011;27061;41.648;24.568;2022-10-01T17:11:43;17.20;;;3.13;;
41311;SDS011;27061;41.648;24.568;2022-10-01T17:14:14;7.20;;;2.00;;
41311;SDS011;27061;41.648;24.568;2022-10-01T17:16:43;5.35;;;1.67;;
41311;SDS011;27061;41.648;24.568;2022-10-01T17:19:11;14.43;;;3.10;;
41311;SDS011;27061;41.648;24.568;2022-10-01T17:21:38;5.50;;;2.45;;